Time;durP1;ratioP1;P1;durP2;ratioP2;P2;SDS_P1;SDS_P2;PMS_P1;PMS_P2;Temp;Humidity;BMP_temperature;BMP_pressure;BME280_temperature;BME280_humidity;BME280_pressure;Samples;Min_cycle;Max_cycle;Signal;HPM_P1;HPM_P2
2021/05/24 00:00:30;;;;;;;0.57;0.57;;;10.50;99.90;;;;;;4445688;32;20060;-72
2021/05/24 00:02:57;;;;;;;0.40;0.40;;;10.50;99.90;;;;;;4445901;32;20081;-72
2021/05/24 00:05:27;;;;;;;0.30;0.30;;;10.50;99.90;;;;;;4444908;32;20085;-72
2021/05/24 00:07:53;;;;;;;0.20;0.20;;;10.50;99.90;;;;;;4444988;32;20236;-72
2021/05/24 00:10:22;;;;;;;0.35;0.35;;;10.40;99.90;;;;;;4445727;32;20085;-72
2021/05/24 00:12:50;;;;;;;0.65;0.60;;;10.50;99.90;;;;;;4436728;32;20572;-72
2021/05/24 00:15:22;;;;;;;0.77;0.60;;;10.50;99.90;;;;;;4433300;32;20086;-72
2021/05/24 00:17:49;;;;;;;1.20;1.10;;;10.60;99.90;;;;;;4445087;32;20106;-72
2021/05/24 00:20:16;;;;;;;0.52;0.37;;;10.60;99.90;;;;;;4445094;32;20081;-72
2021/05/24 00:22:42;;;;;;;0.40;0.40;;;10.60;99.90;;;;;;4445566;32;20085;-72
2021/05/24 00:25:09;;;;;;;0.40;0.40;;;10.70;99.90;;;;;;4443295;32;20190;-72
2021/05/24 00:27:34;;;;;;;1.75;0.45;;;10.80;99.90;;;;;;4430085;32;20081;-72
2021/05/24 00:30:01;;;;;;;0.98;0.25;;;10.70;99.90;;;;;;4430513;32;20492;-73
2021/05/24 00:32:26;;;;;;;0.40;0.40;;;10.60;99.90;;;;;;4431218;32;20069;-72
2021/05/24 00:34:52;;;;;;;0.35;0.35;;;10.50;99.90;;;;;;4429439;32;20120;-72
2021/05/24 00:37:18;;;;;;;0.30;0.30;;;10.50;99.90;;;;;;4445408;32;20120;-72
2021/05/24 00:39:44;;;;;;;0.30;0.30;;;10.40;99.90;;;;;;4445469;32;20553;-72
2021/05/24 00:42:10;;;;;;;0.30;0.30;;;10.40;99.90;;;;;;4444674;32;20080;-72
2021/05/24 00:44:35;;;;;;;0.47;0.47;;;10.40;99.90;;;;;;4445590;32;20073;-72
2021/05/24 00:47:01;;;;;;;0.40;0.40;;;10.30;99.90;;;;;;4431107;32;20090;-72
2021/05/24 00:49:29;;;;;;;0.30;0.30;;;10.30;99.90;;;;;;4429671;32;20078;-72
2021/05/24 00:51:56;;;;;;;0.50;0.50;;;10.30;99.90;;;;;;4429601;32;20094;-72
2021/05/24 00:54:23;;;;;;;0.20;0.20;;;10.30;99.90;;;;;;4430043;32;20120;-72
2021/05/24 00:56:48;;;;;;;0.40;0.40;;;10.30;99.90;;;;;;4441450;32;20065;-72
2021/05/24 00:59:15;;;;;;;1.10;0.35;;;10.30;99.90;;;;;;4444868;32;20515;-72
2021/05/24 01:01:41;;;;;;;0.40;0.40;;;10.20;99.90;;;;;;4444644;32;20064;-72
2021/05/24 01:04:06;;;;;;;0.68;0.50;;;10.20;99.90;;;;;;4445277;32;20077;-72
2021/05/24 01:06:32;;;;;;;1.10;0.60;;;10.20;99.90;;;;;;4434243;32;20128;-72
2021/05/24 01:08:58;;;;;;;0.60;0.60;;;10.20;99.90;;;;;;4429675;32;20544;-72
2021/05/24 01:11:24;;;;;;;0.52;0.52;;;10.20;99.90;;;;;;4429910;32;20064;-72
2021/05/24 01:13:49;;;;;;;0.30;0.30;;;10.30;99.90;;;;;;4444697;32;20165;-72
2021/05/24 01:16:15;;;;;;;0.50;0.50;;;10.20;99.90;;;;;;4436077;32;20094;-72
2021/05/24 01:18:41;;;;;;;0.40;0.40;;;10.10;99.90;;;;;;4429931;32;20074;-72
2021/05/24 01:21:08;;;;;;;0.35;0.35;;;10.10;99.90;;;;;;4429588;32;20085;-72
2021/05/24 01:23:38;;;;;;;0.70;0.70;;;10.00;99.90;;;;;;4429545;32;20073;-72
2021/05/24 01:26:04;;;;;;;0.60;0.60;;;10.10;99.90;;;;;;4435886;32;20090;-72
2021/05/24 01:28:29;;;;;;;0.40;0.40;;;10.10;99.90;;;;;;4444383;32;20073;-72
2021/05/24 01:30:55;;;;;;;0.35;0.35;;;10.20;99.90;;;;;;4444358;32;20077;-72
2021/05/24 01:33:20;;;;;;;0.40;0.40;;;10.30;99.90;;;;;;4444509;32;20119;-72
2021/05/24 01:35:46;;;;;;;0.98;0.70;;;10.30;99.90;;;;;;4439774;32;20116;-72
2021/05/24 01:38:12;;;;;;;0.47;0.47;;;10.30;99.90;;;;;;4429029;32;20069;-72
2021/05/24 01:40:40;;;;;;;0.43;0.43;;;10.40;99.90;;;;;;4429971;32;20477;-72
2021/05/24 01:43:06;;;;;;;3.60;0.95;;;10.50;99.90;;;;;;4429682;32;20081;-72
2021/05/24 01:45:32;;;;;;;0.30;0.30;;;10.40;99.90;;;;;;4431711;32;20073;-72
2021/05/24 01:47:57;;;;;;;0.47;0.47;;;10.20;99.90;;;;;;4443908;32;20513;-72
2021/05/24 01:50:23;;;;;;;0.30;0.30;;;10.10;99.90;;;;;;4444093;32;20085;-73
2021/05/24 01:52:49;;;;;;;0.40;0.40;;;10.00;99.90;;;;;;4444642;32;20073;-72
2021/05/24 01:55:15;;;;;;;1.37;1.08;;;9.90;99.90;;;;;;4444820;32;20085;-72
2021/05/24 01:57:41;;;;;;;0.35;0.35;;;9.90;99.90;;;;;;4428260;32;20122;-72
2021/05/24 02:00:12;;;;;;;1.23;0.57;;;10.00;99.90;;;;;;4429381;32;20073;-72
2021/05/24 02:02:40;;;;;;;0.40;0.40;;;10.10;99.90;;;;;;4429202;32;20069;-72
2021/05/24 02:05:07;;;;;;;0.40;0.40;;;10.10;99.90;;;;;;4428317;32;20319;-72
2021/05/24 02:07:33;;;;;;;0.30;0.30;;;10.10;99.90;;;;;;4428685;32;20120;-72
2021/05/24 02:09:58;;;;;;;0.98;0.40;;;10.10;99.90;;;;;;4429593;32;20078;-72
2021/05/24 02:12:24;;;;;;;0.30;0.30;;;10.00;99.90;;;;;;4434872;32;20085;-72
2021/05/24 02:14:52;;;;;;;0.40;0.40;;;10.00;99.90;;;;;;4444632;32;20072;-72
2021/05/24 02:17:18;;;;;;;1.12;0.62;;;10.10;99.90;;;;;;4429320;32;20073;-72
2021/05/24 02:19:46;;;;;;;0.30;0.30;;;10.00;99.90;;;;;;4429577;32;20073;-72
2021/05/24 02:22:11;;;;;;;0.50;0.50;;;10.00;99.90;;;;;;4429858;32;20561;-72
2021/05/24 02:24:37;;;;;;;4.07;1.10;;;10.00;99.90;;;;;;4429894;32;20069;-72
2021/05/24 02:27:02;;;;;;;0.40;0.40;;;9.80;99.90;;;;;;4439768;32;20069;-72
2021/05/24 02:29:28;;;;;;;0.30;0.30;;;9.80;99.90;;;;;;4444046;32;20069;-72
2021/05/24 02:31:53;;;;;;;0.40;0.40;;;9.70;99.90;;;;;;4444223;32;20482;-72
2021/05/24 02:34:19;;;;;;;0.55;0.55;;;9.60;99.90;;;;;;4444257;32;20073;-72
2021/05/24 02:36:44;;;;;;;0.40;0.40;;;9.50;99.90;;;;;;4435713;32;20058;-72
2021/05/24 02:39:10;;;;;;;0.30;0.30;;;9.40;99.90;;;;;;4428507;32;20081;-72
2021/05/24 02:41:37;;;;;;;0.40;0.40;;;9.40;99.90;;;;;;4428467;32;20066;-72
2021/05/24 02:44:05;;;;;;;0.30;0.30;;;9.40;99.90;;;;;;4440656;32;20068;-72
2021/05/24 02:46:30;;;;;;;0.32;0.32;;;9.40;99.90;;;;;;4429981;32;20062;-72
2021/05/24 02:48:55;;;;;;;0.40;0.40;;;9.40;99.90;;;;;;4428290;32;20065;-72
2021/05/24 02:51:21;;;;;;;0.50;0.50;;;9.40;99.90;;;;;;4429085;32;20530;-72
2021/05/24 02:53:46;;;;;;;0.50;0.47;;;9.40;99.90;;;;;;4431561;32;20143;-72
2021/05/24 02:56:12;;;;;;;0.20;0.20;;;9.40;99.90;;;;;;4442581;32;20494;-72
2021/05/24 02:58:37;;;;;;;0.52;0.52;;;9.30;99.90;;;;;;4445999;32;20119;-72
2021/05/24 03:01:03;;;;;;;0.50;0.47;;;9.40;99.90;;;;;;4445883;32;20073;-72
2021/05/24 03:03:30;;;;;;;0.35;0.35;;;9.40;99.90;;;;;;4446725;32;20072;-72
2021/05/24 03:05:56;;;;;;;0.40;0.40;;;9.30;99.90;;;;;;4436674;32;20081;-72
2021/05/24 03:08:21;;;;;;;1.48;0.93;;;9.30;99.90;;;;;;4430318;32;20069;-72
2021/05/24 03:10:47;;;;;;;0.40;0.40;;;9.30;99.90;;;;;;4432370;32;20072;-72
2021/05/24 03:13:13;;;;;;;0.20;0.20;;;9.20;99.90;;;;;;4441975;32;20473;-72
2021/05/24 03:15:38;;;;;;;0.50;0.50;;;9.20;99.90;;;;;;4437717;32;20069;-72
2021/05/24 03:18:04;;;;;;;0.40;0.40;;;9.20;99.90;;;;;;4431021;32;20475;-72
2021/05/24 03:20:29;;;;;;;0.37;0.37;;;9.20;99.90;;;;;;4430358;32;20061;-72
2021/05/24 03:22:55;;;;;;;0.40;0.40;;;9.10;99.90;;;;;;4431020;32;20073;-72
2021/05/24 03:25:20;;;;;;;0.40;0.40;;;9.10;99.90;;;;;;4435445;32;20119;-72
2021/05/24 03:27:46;;;;;;;0.40;0.40;;;9.10;99.90;;;;;;4446233;32;20077;-72
2021/05/24 03:30:13;;;;;;;0.32;0.32;;;9.00;99.90;;;;;;4446030;32;20052;-72
2021/05/24 03:32:39;;;;;;;0.40;0.40;;;9.00;99.90;;;;;;4446359;32;20080;-72
2021/05/24 03:35:07;;;;;;;0.65;0.50;;;9.00;99.90;;;;;;4443442;32;20108;-72
2021/05/24 03:37:32;;;;;;;0.50;0.50;;;9.00;99.90;;;;;;4432105;32;20094;-72
2021/05/24 03:39:58;;;;;;;0.50;0.50;;;9.00;99.90;;;;;;4430919;32;20081;-72
2021/05/24 03:42:23;;;;;;;0.50;0.50;;;9.00;99.90;;;;;;4430666;32;20073;-72
2021/05/24 03:44:49;;;;;;;0.32;0.32;;;9.10;99.90;;;;;;4430767;32;20090;-74
2021/05/24 03:47:15;;;;;;;0.20;0.20;;;9.10;99.90;;;;;;4445862;32;20089;-74
2021/05/24 03:49:45;;;;;;;0.43;0.43;;;9.10;99.90;;;;;;4445519;32;20061;-74
2021/05/24 03:52:12;;;;;;;0.30;0.30;;;9.10;99.90;;;;;;4446821;32;20060;-74
2021/05/24 03:54:38;;;;;;;0.50;0.50;;;9.20;99.90;;;;;;4446320;32;20065;-74
2021/05/24 03:57:04;;;;;;;0.30;0.30;;;9.30;99.90;;;;;;4431255;32;20472;-74
2021/05/24 03:59:29;;;;;;;3.20;0.40;;;9.40;99.90;;;;;;4430771;32;20085;-74
2021/05/24 04:01:55;;;;;;;0.30;0.30;;;9.40;99.90;;;;;;4430502;32;20134;-74
2021/05/24 04:04:21;;;;;;;0.65;0.60;;;9.40;99.90;;;;;;4429853;32;20065;-74
2021/05/24 04:06:52;;;;;;;0.70;0.45;;;9.50;99.90;;;;;;4442548;32;20177;-74
2021/05/24 04:09:18;;;;;;;0.30;0.30;;;9.60;99.90;;;;;;4446490;32;20057;-74
2021/05/24 04:11:43;;;;;;;0.40;0.40;;;9.60;99.90;;;;;;4444915;32;21346;-74
2021/05/24 04:14:08;;;;;;;0.37;0.37;;;9.70;99.90;;;;;;4430713;32;20077;-74
2021/05/24 04:16:35;;;;;;;0.40;0.40;;;9.80;99.90;;;;;;4441070;32;20116;-74
2021/05/24 04:19:06;;;;;;;0.30;0.30;;;9.70;99.90;;;;;;4446032;32;20084;-74
2021/05/24 04:21:31;;;;;;;0.68;0.68;;;9.70;99.90;;;;;;4446911;32;20123;-74
2021/05/24 04:23:57;;;;;;;2.83;1.00;;;9.80;99.90;;;;;;4446683;32;20501;-74
2021/05/24 04:26:22;;;;;;;0.35;0.35;;;9.90;99.90;;;;;;4444923;32;20069;-71
2021/05/24 04:28:47;;;;;;;0.43;0.32;;;10.00;99.90;;;;;;4445355;32;20065;-74
2021/05/24 04:31:13;;;;;;;0.47;0.47;;;10.10;99.90;;;;;;4445388;32;20506;-73
2021/05/24 04:33:38;;;;;;;0.40;0.40;;;10.10;99.90;;;;;;4445633;32;20065;-72
2021/05/24 04:36:04;;;;;;;0.40;0.40;;;10.30;99.90;;;;;;4440027;32;20061;-73
2021/05/24 04:38:30;;;;;;;0.30;0.30;;;10.20;99.90;;;;;;4430523;32;20065;-73
2021/05/24 04:40:55;;;;;;;0.22;0.22;;;10.30;99.90;;;;;;4430302;32;20068;-72
2021/05/24 04:43:27;;;;;;;0.62;0.62;;;10.40;99.90;;;;;;4429996;32;20495;-72
2021/05/24 04:45:52;;;;;;;0.37;0.37;;;10.60;99.90;;;;;;4431891;32;20135;-73
2021/05/24 04:48:18;;;;;;;0.43;0.43;;;10.70;99.90;;;;;;4445465;32;20430;-72
2021/05/24 04:50:43;;;;;;;0.77;0.60;;;10.70;99.90;;;;;;4444514;32;20073;-73
2021/05/24 04:53:09;;;;;;;0.40;0.40;;;10.70;99.90;;;;;;4445187;32;20072;-73
2021/05/24 04:55:34;;;;;;;0.30;0.30;;;10.80;99.90;;;;;;4446783;32;20065;-73
2021/05/24 04:58:00;;;;;;;0.90;0.80;;;10.90;99.90;;;;;;4440901;32;20058;-73
2021/05/24 05:00:25;;;;;;;0.40;0.40;;;10.90;99.90;;;;;;4432165;32;20068;-72
2021/05/24 05:02:51;;;;;;;0.20;0.20;;;11.00;99.90;;;;;;4438692;32;20084;-73
2021/05/24 05:05:16;;;;;;;0.37;0.37;;;11.00;99.90;;;;;;4442014;32;20107;-73
2021/05/24 05:07:42;;;;;;;0.30;0.30;;;11.00;99.90;;;;;;4436064;32;20070;-73
2021/05/24 05:10:08;;;;;;;0.30;0.30;;;11.00;99.90;;;;;;4445001;32;20076;-73
2021/05/24 05:12:33;;;;;;;0.40;0.37;;;11.20;99.90;;;;;;4431195;32;20061;-73
2021/05/24 05:14:59;;;;;;;0.35;0.35;;;11.20;99.90;;;;;;4429415;32;20128;-73
2021/05/24 05:17:25;;;;;;;0.40;0.40;;;11.20;99.90;;;;;;4427865;32;20066;-72
2021/05/24 05:19:51;;;;;;;0.30;0.30;;;11.30;99.90;;;;;;4429249;32;20138;-72
2021/05/24 05:22:16;;;;;;;0.30;0.30;;;11.30;99.90;;;;;;4429557;32;20081;-72
2021/05/24 05:24:42;;;;;;;0.73;0.50;;;11.40;99.90;;;;;;4428969;32;20077;-72
2021/05/24 05:27:08;;;;;;;0.32;0.32;;;11.50;99.90;;;;;;4427698;32;20526;-72
2021/05/24 05:29:33;;;;;;;0.45;0.37;;;11.60;99.90;;;;;;4444611;32;20076;-72
2021/05/24 05:31:59;;;;;;;0.30;0.30;;;11.60;99.90;;;;;;4443626;32;20140;-72
2021/05/24 05:34:25;;;;;;;0.45;0.45;;;11.70;99.90;;;;;;4443525;32;20065;-72
2021/05/24 05:36:50;;;;;;;0.22;0.22;;;11.80;99.90;;;;;;4444217;32;20069;-72
2021/05/24 05:39:16;;;;;;;0.37;0.37;;;11.90;99.90;;;;;;4443994;32;20085;-72
2021/05/24 05:41:41;;;;;;;0.40;0.40;;;12.00;99.90;;;;;;4443949;32;20104;-73
2021/05/24 05:44:07;;;;;;;2.12;0.50;;;12.00;99.90;;;;;;4443466;32;20396;-72
2021/05/24 05:46:34;;;;;;;0.35;0.35;;;12.00;99.90;;;;;;4432456;32;20074;-72
2021/05/24 05:48:59;;;;;;;0.37;0.37;;;12.10;99.90;;;;;;4427906;32;20081;-72
2021/05/24 05:51:25;;;;;;;0.40;0.40;;;12.20;99.90;;;;;;4428408;32;20069;-72
2021/05/24 05:53:52;;;;;;;0.50;0.50;;;12.30;99.90;;;;;;4428568;32;20086;-73
2021/05/24 05:56:18;;;;;;;0.30;0.30;;;12.30;99.90;;;;;;4443932;32;20527;-73
2021/05/24 05:58:43;;;;;;;0.52;0.30;;;12.40;99.90;;;;;;4431837;32;20074;-73
2021/05/24 06:01:09;;;;;;;0.30;0.30;;;12.50;99.90;;;;;;4429113;32;20527;-72
2021/05/24 06:03:34;;;;;;;0.40;0.40;;;12.60;99.90;;;;;;4427869;32;20065;-72
2021/05/24 06:06:00;;;;;;;0.28;0.28;;;12.70;99.90;;;;;;4435147;32;20073;-72
2021/05/24 06:08:26;;;;;;;0.20;0.20;;;12.80;99.90;;;;;;4429067;32;20131;-72
2021/05/24 06:10:52;;;;;;;0.30;0.30;;;12.90;99.90;;;;;;4428243;32;20081;-73
2021/05/24 06:13:17;;;;;;;0.30;0.30;;;12.90;99.90;;;;;;4439737;32;20065;-72
2021/05/24 06:15:43;;;;;;;0.30;0.30;;;13.00;99.90;;;;;;4442630;32;20061;-72
2021/05/24 06:18:09;;;;;;;0.70;0.60;;;13.10;99.90;;;;;;4443570;32;20131;-72
2021/05/24 06:20:35;;;;;;;0.30;0.30;;;13.20;99.90;;;;;;4443379;32;20420;-73
2021/05/24 06:23:00;;;;;;;0.93;0.30;;;13.40;99.90;;;;;;4442860;32;20073;-73
2021/05/24 06:25:26;;;;;;;0.85;0.70;;;13.50;99.90;;;;;;4443288;32;20069;-73
2021/05/24 06:27:52;;;;;;;0.30;0.30;;;13.60;99.90;;;;;;4429702;32;20073;-73
2021/05/24 06:30:17;;;;;;;2.67;0.60;;;13.70;99.90;;;;;;4428281;32;20061;-73
2021/05/24 06:32:44;;;;;;;0.20;0.20;;;13.70;99.90;;;;;;4427858;32;20132;-73
2021/05/24 06:35:09;;;;;;;0.40;0.40;;;13.80;99.90;;;;;;4427829;32;20081;-73
2021/05/24 06:37:35;;;;;;;0.30;0.30;;;13.90;99.90;;;;;;4429173;32;20068;-73
2021/05/24 06:40:01;;;;;;;0.40;0.40;;;14.00;99.90;;;;;;4426725;32;20085;-73
2021/05/24 06:42:26;;;;;;;0.40;0.40;;;14.00;99.90;;;;;;4427752;32;20073;-73
2021/05/24 06:44:53;;;;;;;0.28;0.28;;;14.00;99.90;;;;;;4429408;32;20506;-74
2021/05/24 06:47:19;;;;;;;0.20;0.20;;;14.20;99.90;;;;;;4442932;32;20123;-73
2021/05/24 06:49:44;;;;;;;0.20;0.20;;;14.20;99.90;;;;;;4442434;32;20139;-74
2021/05/24 06:52:10;;;;;;;0.20;0.20;;;14.30;99.90;;;;;;4437799;32;20077;-73
2021/05/24 06:54:36;;;;;;;0.57;0.50;;;14.50;99.90;;;;;;4437157;32;20073;-73
2021/05/24 06:57:04;;;;;;;0.30;0.30;;;14.50;99.90;;;;;;4427082;32;20124;-74
2021/05/24 06:59:31;;;;;;;0.55;0.40;;;14.60;99.90;;;;;;4441375;32;20069;-73
2021/05/24 07:01:58;;;;;;;0.30;0.30;;;14.60;99.90;;;;;;4442949;32;20378;-74
2021/05/24 07:04:24;;;;;;;0.30;0.30;;;14.70;99.90;;;;;;4431998;32;20128;-73
2021/05/24 07:06:50;;;;;;;0.20;0.20;;;14.70;99.90;;;;;;4428461;32;20076;-73
2021/05/24 07:09:15;;;;;;;0.30;0.30;;;14.80;99.90;;;;;;4427799;32;20104;-73
2021/05/24 07:11:41;;;;;;;0.22;0.22;;;14.80;99.90;;;;;;4439753;32;20447;-74
2021/05/24 07:14:06;;;;;;;0.20;0.20;;;15.00;99.90;;;;;;4427059;32;20120;-74
2021/05/24 07:16:32;;;;;;;0.28;0.28;;;15.10;99.90;;;;;;4426907;32;20091;-74
2021/05/24 07:18:57;;;;;;;0.30;0.30;;;15.20;99.90;;;;;;4427062;32;20546;-73
2021/05/24 07:21:23;;;;;;;0.40;0.40;;;15.30;99.90;;;;;;4433429;32;20628;-74
2021/05/24 07:23:48;;;;;;;0.20;0.20;;;15.40;99.90;;;;;;4442704;32;20078;-73
2021/05/24 07:26:14;;;;;;;0.20;0.20;;;15.50;99.90;;;;;;4442604;32;20566;-74
2021/05/24 07:28:39;;;;;;;0.30;0.30;;;15.60;99.90;;;;;;4442675;32;20069;-74
2021/05/24 07:31:05;;;;;;;0.25;0.25;;;15.80;99.90;;;;;;4442410;32;20077;-73
2021/05/24 07:33:30;;;;;;;0.20;0.20;;;16.00;99.90;;;;;;4442945;32;20065;-74
2021/05/24 07:35:56;;;;;;;0.35;0.35;;;16.10;99.90;;;;;;4442152;32;20124;-74
2021/05/24 07:38:21;;;;;;;0.30;0.30;;;16.30;99.90;;;;;;4443331;32;20064;-74
2021/05/24 07:40:47;;;;;;;1.00;0.40;;;16.40;99.90;;;;;;4445084;32;20069;-74
2021/05/24 07:43:13;;;;;;;0.30;0.30;;;16.50;99.90;;;;;;4438372;32;20577;-74
2021/05/24 07:45:38;;;;;;;0.30;0.30;;;16.60;99.90;;;;;;4428648;32;20124;-74
2021/05/24 07:48:04;;;;;;;1.05;0.90;;;16.70;99.90;;;;;;4443358;32;20061;-74
2021/05/24 07:50:30;;;;;;;0.40;0.35;;;16.80;99.90;;;;;;4444839;32;20128;-74
2021/05/24 07:52:55;;;;;;;0.30;0.30;;;17.00;99.90;;;;;;4445416;32;20057;-74
2021/05/24 07:55:21;;;;;;;0.20;0.20;;;17.10;99.90;;;;;;4435443;32;20076;-73
2021/05/24 07:57:46;;;;;;;0.30;0.30;;;17.10;99.90;;;;;;4430049;32;20065;-74
2021/05/24 08:00:13;;;;;;;0.70;0.70;;;17.20;99.90;;;;;;4429254;32;20519;-74
2021/05/24 08:02:41;;;;;;;0.75;0.73;;;17.20;99.90;;;;;;4430118;32;20074;-74
2021/05/24 08:05:09;;;;;;;0.30;0.30;;;17.40;99.90;;;;;;4429383;32;20077;-73
2021/05/24 08:07:35;;;;;;;0.30;0.30;;;17.50;99.90;;;;;;4430136;32;20520;-74
2021/05/24 08:10:01;;;;;;;0.30;0.30;;;17.60;99.90;;;;;;4430352;32;20142;-74
2021/05/24 08:12:26;;;;;;;0.30;0.30;;;17.70;99.90;;;;;;4436573;32;20069;-73
2021/05/24 08:14:53;;;;;;;0.30;0.30;;;17.70;99.90;;;;;;4444780;32;20072;-74
2021/05/24 08:17:18;;;;;;;0.20;0.20;;;17.70;99.90;;;;;;4443963;32;20073;-74
2021/05/24 08:19:44;;;;;;;0.30;0.30;;;17.70;99.90;;;;;;4444638;32;20069;-74
2021/05/24 08:22:10;;;;;;;0.20;0.20;;;17.70;99.90;;;;;;4444345;32;20061;-74
2021/05/24 08:24:35;;;;;;;0.30;0.30;;;17.70;99.90;;;;;;4444786;32;20400;-74
2021/05/24 08:27:01;;;;;;;0.25;0.25;;;17.40;99.90;;;;;;4443958;32;20123;-74
2021/05/24 08:29:27;;;;;;;11.77;0.75;;;17.40;99.90;;;;;;4441980;32;20074;-74
2021/05/24 08:31:52;;;;;;;0.30;0.30;;;17.40;99.90;;;;;;4429606;32;20124;-74
2021/05/24 08:34:18;;;;;;;0.30;0.30;;;17.40;99.90;;;;;;4429840;32;20462;-74
2021/05/24 08:36:43;;;;;;;0.20;0.20;;;17.50;99.90;;;;;;4429033;32;20085;-74
2021/05/24 08:39:09;;;;;;;0.43;0.30;;;17.70;99.90;;;;;;4430058;32;20086;-74
2021/05/24 08:41:35;;;;;;;0.35;0.35;;;17.90;99.90;;;;;;4429059;32;20126;-74
2021/05/24 08:44:01;;;;;;;0.30;0.30;;;18.00;99.00;;;;;;4429136;32;20081;-73
2021/05/24 08:46:27;;;;;;;0.40;0.40;;;18.10;99.40;;;;;;4431130;32;20528;-73
2021/05/24 08:48:53;;;;;;;0.20;0.20;;;18.20;98.30;;;;;;4443287;32;20177;-74
2021/05/24 08:51:19;;;;;;;0.62;0.62;;;18.40;98.70;;;;;;4444438;32;20102;-74
2021/05/24 08:53:44;;;;;;;0.30;0.30;;;18.50;98.40;;;;;;4444599;32;20085;-74
2021/05/24 08:56:10;;;;;;;0.20;0.20;;;18.40;98.40;;;;;;4441611;32;20135;-74
2021/05/24 08:58:37;;;;;;;0.20;0.20;;;18.20;98.10;;;;;;4433168;32;20065;-74
2021/05/24 09:01:04;;;;;;;0.30;0.30;;;18.20;97.00;;;;;;4428241;32;20070;-74
2021/05/24 09:03:32;;;;;;;0.20;0.20;;;18.20;96.70;;;;;;4428524;32;20089;-74
2021/05/24 09:06:01;;;;;;;0.30;0.30;;;18.50;98.90;;;;;;4429128;32;20078;-74
2021/05/24 09:08:42;;;;;;;0.30;0.30;;;18.70;96.00;;;;;;4429161;32;20062;-74
2021/05/24 09:11:26;;;;;;;0.25;0.25;;;18.70;95.70;;;;;;4428323;32;20061;-73
2021/05/24 09:13:51;;;;;;;0.20;0.20;;;18.50;95.30;;;;;;4428837;32;20077;-74
2021/05/24 09:16:36;;;;;;;0.30;0.30;;;18.40;95.40;;;;;;4428714;32;20649;-73
2021/05/24 09:19:14;;;;;;;0.20;0.20;;;18.30;95.00;;;;;;4428564;32;20583;-74
2021/05/24 09:21:49;;;;;;;0.20;0.20;;;18.20;94.70;;;;;;4428217;32;20543;-73
2021/05/24 09:24:20;;;;;;;0.20;0.20;;;18.20;94.60;;;;;;4428815;32;20132;-74
2021/05/24 09:26:46;;;;;;;0.20;0.20;;;18.40;94.90;;;;;;4428387;32;20069;-73
2021/05/24 09:29:11;;;;;;;0.40;0.40;;;18.70;94.00;;;;;;4428049;32;20061;-73
2021/05/24 09:31:38;;;;;;;0.30;0.30;;;18.90;93.00;;;;;;4427912;32;20427;-74
2021/05/24 09:34:06;;;;;;;0.30;0.30;;;19.10;92.40;;;;;;4428480;32;20529;-73
2021/05/24 09:36:33;;;;;;;0.40;0.40;;;19.10;91.10;;;;;;4427940;32;20152;-74
2021/05/24 09:39:02;;;;;;;0.25;0.25;;;18.90;91.00;;;;;;4425050;32;96387;-73
2021/05/24 09:41:28;;;;;;;1.27;0.43;;;18.70;90.70;;;;;;4428517;32;20078;-74
2021/05/24 09:43:54;;;;;;;0.20;0.20;;;18.60;91.20;;;;;;4427829;32;20057;-73
2021/05/24 09:46:28;;;;;;;0.30;0.30;;;18.50;91.60;;;;;;4429854;32;20126;-73
2021/05/24 09:49:01;;;;;;;0.82;0.40;;;18.50;91.90;;;;;;4443385;32;20077;-73
2021/05/24 09:51:28;;;;;;;0.20;0.20;;;18.50;92.40;;;;;;4438909;32;20079;-74
2021/05/24 09:53:57;;;;;;;0.20;0.20;;;18.60;91.00;;;;;;4428294;32;20061;-73
2021/05/24 09:56:23;;;;;;;0.30;0.30;;;18.90;90.60;;;;;;4443564;32;20081;-73
2021/05/24 09:59:11;;;;;;;0.30;0.30;;;19.10;89.20;;;;;;4430224;32;20073;-73
2021/05/24 10:01:41;;;;;;;0.20;0.20;;;19.30;89.10;;;;;;4426616;32;20082;-73
2021/05/24 10:04:09;;;;;;;0.30;0.30;;;19.60;89.90;;;;;;4428286;32;20061;-73
2021/05/24 10:06:35;;;;;;;0.25;0.25;;;19.60;88.20;;;;;;4427714;32;20061;-73
2021/05/24 10:09:03;;;;;;;0.68;0.45;;;19.80;90.00;;;;;;4428060;32;20082;-74
2021/05/24 10:11:29;;;;;;;0.25;0.25;;;19.80;88.40;;;;;;4428243;32;20077;-73
2021/05/24 10:13:55;;;;;;;0.30;0.30;;;19.90;88.10;;;;;;4442372;32;20078;-74
2021/05/24 10:16:21;;;;;;;0.22;0.22;;;19.90;88.40;;;;;;4443023;32;20061;-73
2021/05/24 10:18:47;;;;;;;0.30;0.30;;;19.60;87.20;;;;;;4442918;32;20076;-73
2021/05/24 10:21:12;;;;;;;0.20;0.20;;;19.50;88.80;;;;;;4441298;32;20054;-74
2021/05/24 10:23:38;;;;;;;0.30;0.30;;;19.70;90.50;;;;;;4428331;32;20142;-74
2021/05/24 10:26:06;;;;;;;0.25;0.25;;;19.90;86.30;;;;;;4427725;32;20144;-73
2021/05/24 10:28:33;;;;;;;2.58;0.68;;;20.20;85.10;;;;;;4427531;32;20065;-73
2021/05/24 10:31:00;;;;;;;0.22;0.22;;;20.30;83.60;;;;;;4427653;32;20129;-73
2021/05/24 10:33:42;;;;;;;0.20;0.20;;;20.20;77.40;;;;;;4427073;32;20117;-73
2021/05/24 10:36:29;;;;;;;0.20;0.20;;;20.50;79.40;;;;;;4428386;32;20053;-74
2021/05/24 10:39:11;;;;;;;0.30;0.30;;;20.60;81.00;;;;;;4429928;32;20068;-73
2021/05/24 10:41:45;;;;;;;0.20;0.20;;;20.40;79.00;;;;;;4429434;32;20080;-73
2021/05/24 10:44:13;;;;;;;0.20;0.20;;;20.60;76.60;;;;;;4442850;32;20256;-73
2021/05/24 10:46:39;;;;;;;0.30;0.30;;;20.50;76.40;;;;;;4431492;32;20065;-73
2021/05/24 10:49:16;;;;;;;0.20;0.20;;;20.70;77.30;;;;;;4442907;32;20124;-74
2021/05/24 10:51:52;;;;;;;0.20;0.20;;;20.60;73.60;;;;;;4443030;32;20144;-74
2021/05/24 10:54:23;;;;;;;0.47;0.43;;;20.70;76.80;;;;;;4441227;32;20075;-74
2021/05/24 10:57:07;;;;;;;0.20;0.20;;;20.50;76.30;;;;;;4427218;32;20108;-74
2021/05/24 10:59:43;;;;;;;0.40;0.40;;;20.70;78.80;;;;;;4427498;32;20060;-74
2021/05/24 11:02:15;;;;;;;0.17;0.17;;;21.40;78.30;;;;;;4428124;32;20077;-73
2021/05/24 11:04:51;;;;;;;0.10;0.10;;;21.70;75.30;;;;;;4432620;32;20120;-74
2021/05/24 11:07:42;;;;;;;0.20;0.20;;;21.70;75.50;;;;;;4432345;32;20077;-74
2021/05/24 11:10:17;;;;;;;0.20;0.20;;;21.30;75.50;;;;;;4415832;32;20073;-74
2021/05/24 11:12:48;;;;;;;0.70;0.30;;;21.00;75.30;;;;;;4435471;32;20510;-74
2021/05/24 11:15:19;;;;;;;0.20;0.20;;;21.20;72.50;;;;;;4446741;32;20065;-73
2021/05/24 11:18:03;;;;;;;0.20;0.20;;;21.80;75.10;;;;;;4446709;32;20049;-74
2021/05/24 11:20:31;;;;;;;0.62;0.45;;;22.60;70.10;;;;;;4445106;32;20060;-72
2021/05/24 11:26:14;;;;;;;0.20;0.20;;;22.50;67.50;;;;;;4434134;32;20147;-72
2021/05/24 11:28:43;;;;;;;0.65;0.65;;;22.70;67.80;;;;;;4444577;32;20057;-72
2021/05/24 11:31:13;;;;;;;0.30;0.30;;;22.10;68.00;;;;;;4422685;32;20113;-72
2021/05/24 11:33:49;;;;;;;0.20;0.20;;;21.90;70.10;;;;;;4425872;32;20065;-72
2021/05/24 11:36:17;;;;;;;0.50;0.50;;;22.80;70.90;;;;;;4424755;32;20234;-72
2021/05/24 11:39:07;;;;;;;0.10;0.10;;;23.60;72.00;;;;;;4429941;32;20062;-73
2021/05/24 11:41:34;;;;;;;0.10;0.10;;;24.20;67.00;;;;;;4441882;32;20065;-73
2021/05/24 11:44:02;;;;;;;0.17;0.17;;;24.00;61.20;;;;;;4445264;32;20109;-73
2021/05/24 11:46:49;;;;;;;0.15;0.15;;;23.10;63.10;;;;;;4442396;32;20168;-72
2021/05/24 11:49:17;;;;;;;0.10;0.10;;;23.70;63.90;;;;;;4429448;32;20073;-73
2021/05/24 11:51:45;;;;;;;0.10;0.10;;;24.60;62.70;;;;;;4429372;32;20387;-72
2021/05/24 11:54:20;;;;;;;0.10;0.10;;;24.40;63.10;;;;;;4429738;32;20066;-72
2021/05/24 11:56:48;;;;;;;0.10;0.10;;;24.60;60.80;;;;;;4429184;32;20057;-73
2021/05/24 11:59:15;;;;;;;0.10;0.10;;;25.30;59.40;;;;;;4432955;32;20073;-73
2021/05/24 12:01:43;;;;;;;0.05;0.05;;;25.30;57.70;;;;;;4442219;32;20086;-73
2021/05/24 12:04:12;;;;;;;0.10;0.10;;;25.90;56.90;;;;;;4441051;32;20081;-72
2021/05/24 12:06:41;;;;;;;0.10;0.10;;;25.80;56.40;;;;;;4442981;32;20140;-72
2021/05/24 12:09:06;;;;;;;0.00;0.00;;;25.90;56.40;;;;;;4444194;32;20077;-72
2021/05/24 12:11:33;;;;;;;1.95;0.25;;;26.30;56.70;;;;;;4442927;32;20120;-72
2021/05/24 12:14:01;;;;;;;0.00;0.00;;;25.80;55.70;;;;;;4429789;32;20112;-73
2021/05/24 12:16:28;;;;;;;0.00;0.00;;;26.10;55.70;;;;;;4427232;32;20077;-72
2021/05/24 12:18:56;;;;;;;0.10;0.10;;;26.30;56.30;;;;;;4427595;32;20072;-74
2021/05/24 12:21:39;;;;;;;0.10;0.10;;;26.40;56.60;;;;;;4441637;32;20271;-72
2021/05/24 12:24:08;;;;;;;0.00;0.00;;;26.90;54.00;;;;;;4443927;32;20061;-73
2021/05/24 12:26:35;;;;;;;0.10;0.00;;;27.20;53.30;;;;;;4431460;32;20065;-72
2021/05/24 12:29:02;;;;;;;0.10;0.10;;;27.00;53.00;;;;;;4429931;32;20491;-73
2021/05/24 12:31:28;;;;;;;0.08;0.08;;;27.30;50.70;;;;;;4429485;32;20719;-73
2021/05/24 12:33:56;;;;;;;0.00;0.00;;;27.00;51.20;;;;;;4438885;32;20128;-73
2021/05/24 12:36:22;;;;;;;0.00;0.00;;;27.20;51.60;;;;;;4441884;32;20472;-72
2021/05/24 12:38:55;;;;;;;0.00;0.00;;;27.60;51.10;;;;;;4444459;32;20073;-72
2021/05/24 12:41:21;;;;;;;0.00;0.00;;;27.70;49.00;;;;;;4427382;32;20090;-73
2021/05/24 12:43:49;;;;;;;0.00;0.00;;;28.10;49.30;;;;;;4426931;32;20420;-72
2021/05/24 12:46:17;;;;;;;0.10;0.10;;;28.40;49.00;;;;;;4427942;32;20078;-73
2021/05/24 12:48:43;;;;;;;0.17;0.17;;;28.40;49.00;;;;;;4430475;32;20069;-73
2021/05/24 12:51:20;;;;;;;0.08;0.08;;;28.40;49.60;;;;;;4431499;32;20408;-72